METAR Data
IDs: Format: Raw Decoded Include TAF

Data at: 0622 UTC 11 Dec 2018

PAPG 110556Z 11009G18KT 020V170 5SM -RA BR OVC021 04/02 A2913 RMK AO2 SLP868 P0014 60094 T00390017 10050 20039 58034
PAPG 110456Z VRB06KT 7SM -RA OVC019 04/02 A2917 RMK AO2 SLP882 P0017 T00440017
PAPG 110356Z VRB06G15KT 5SM -RA BR OVC021 04/02 A2920 RMK AO2 SLP890 P0020 T00440022
PAPG 110256Z 16009G21KT 090V210 6SM -RA BR OVC021 04/02 A2923 RMK AO2 PK WND 12031/0238 SLP901 P0018 60043 T00440022 56056
PAPG 110156Z 11008G26KT 7SM -RA OVC023 05/02 A2927 RMK AO2 PK WND 14026/0149 SLP916 P0013 T00500022
PAPG 110056Z 13008G28KT 030V240 8SM -RA BR OVC023 05/02 A2932 RMK AO2 PK WND 09032/0043 PRESFR SLP933 P0012 T00500022
PAPG 102356Z 15011G24KT 5SM SCT016 OVC023 05/02 A2940
PAPG 102256Z 15011G17KT 060V200 7SM -RA SCT016 OVC025 04/02 A2946
PAPG 102156Z 13010G26KT 7SM -RA SCT012 OVC025 04/02 A2953
PAPG 102056Z 13012G18KT 10SM -RA FEW010 SCT016 OVC025 04/02 A2958
PAPG 101956Z 12010G18KT 10SM -RA SCT012 OVC026 04/02 A2962
PAPG 101856Z 12008G21KT 5SM -RA BR FEW009 OVC021 04/02 A2966
PAPG 101803Z 11005G14KT 5SM -RA BR FEW009 OVC021 04/02 A2968 RMK AO2 P0001
PAPG 101756Z 11009G14KT 7SM -RA FEW011 OVC021 04/02 A2968
PAPG 101656Z 12009KT 7SM -RA FEW009 SCT021 OVC033 03/02 A2969
PAPG 101620Z 12005KT 7SM -RA FEW009 SCT026 OVC033 04/02 A2970
PAPG 101556Z VRB04KT 7SM -RA FEW009 SCT026 OVC033 04/02 A2970
PAPG 101456Z 11005KT 10SM -RA FEW023 OVC037 04/02 A2971
PAPG 101256Z AUTO 14003KT 10SM -RA FEW021 OVC032 03/02 A2975 RMK AO2 RAB17 SLP079 P0001 T00330017
PAPG 101248Z AUTO 15003KT 10SM -RA FEW021 BKN032 OVC042 03/02 A2976 RMK AO2 RAB17 P0000
PAPG 101156Z AUTO 00000KT 10SM OVC023 02/02 A2977 RMK AO2 RAE44UPB15E19 SLP084 P0001 60003 70053 T00220017 10050 20022 51007 FZRANO
PAPG 101111Z AUTO 00000KT 10SM -RA OVC029 02/02 A2977 RMK AO2 P0000 FZRANO
PAPG 101056Z AUTO 00000KT 10SM -RA FEW025 BKN032 OVC050 03/02 A2977 RMK AO2 UPB28E31RAB31 SLP084 P0001 T00280017
PAPG 100956Z AUTO 35003KT 10SM FEW120 03/02 A2976 RMK AO2 RAB04E40 SLP080 P0001 T00280017
PAPG 100856Z AUTO VRB03KT 10SM FEW055 04/01 A2975 RMK AO2 SLP077 60000 T00440006 401060039 51034
PAPG 100756Z AUTO VRB04KT 10SM FEW035 BKN055 04/02 A2973 RMK AO2 SLP070 T00440017
PAPG 100656Z 20006KT 10SM FEW016 BKN035 OVC050 04/02 A2969 RMK AO2 RAE27 SLP056 P0000 T00440017
PAPG 100627Z 19006KT 10SM FEW026 SCT031 BKN050 04/02 A2967 RMK AO2 RAE27 P0000
PAPG 100556Z 22006KT 7SM -RA SCT016 BKN028 OVC034 04/03 A2965 RMK AO2 RAE07B35 SLP043 P0002 60019 T00440028 10056 20039 53039
PAPG 100456Z 23005KT 7SM -RA FEW008 SCT020 OVC032 05/04 A2960 RMK AO2 RAE13B40 SLP027 P0000 T00500039
PAPG 100356Z VRB03KT 7SM -RA FEW008 BKN020 OVC026 04/03 A2956 RMK AO2 SLP014 P0009 T00390033
PAPG 100256Z 00000KT 7SM -RA SCT008 OVC018 04/03 A2953 RMK AO2 SLP004 P0008 60008 T00390033 53023
PAPG 100156Z 11003KT 7SM -RA FEW008 BKN016 OVC019 04/04 A2950 RMK AO2 SLP995 P0000 T00440039
PAPG 100056Z 11005KT 7SM -RA FEW008 BKN016 OVC023 05/04 A2949 RMK AO2 RAB47 SLP988 P0000 T00500039
PAPG 092356Z 00000KT 7SM FEW007 BKN025 OVC033 05/04 A2946 RMK AO2 RAE46 SLP980 OCNL BINOVC P0002 60021 T00500039 10072 20050 51010
PAPG 092256Z 00000KT 7SM -RA BKN024 OVC028 06/04 A2946 RMK AO2 SLP978 P0007 T00560039
PAPG 092156Z 14006KT 7SM -RA BKN027 OVC032 06/04 A2944 RMK AO2 SLP974 P0001 T00560039
PAPG 092056Z 13010G14KT 7SM -RA OVC024 06/04 A2943 RMK AO2 SLP970 P0006 60011 T00610039 51014
PAPG 091956Z 14007KT 090V180 7SM -RA BKN027 OVC034 06/04 A2941 RMK AO2 SLP963 P0003 T00610039
PAPG 091913Z 12005KT 8SM -RA BKN028 OVC034 06/03 A2942 RMK AO2 P0001
PAPG 091856Z 13008G25KT 10SM -RA OVC032 06/03 A2942 RMK AO2 PK WND 11027/1811 SLP967 P0002 T00610033